sensor_id;sensor_type;location;lat;lon;timestamp;P1;durP1;ratioP1;P2;durP2;ratioP2
10705;SDS011;5404;42.656;23.336;2023-06-14T00:00:08;18.35;;;11.27;;
10705;SDS011;5404;42.656;23.336;2023-06-14T00:02:34;17.35;;;10.80;;
10705;SDS011;5404;42.656;23.336;2023-06-14T00:04:59;15.52;;;11.00;;
10705;SDS011;5404;42.656;23.336;2023-06-14T00:07:34;14.02;;;10.05;;
10705;SDS011;5404;42.656;23.336;2023-06-14T00:10:01;15.38;;;10.10;;
10705;SDS011;5404;42.656;23.336;2023-06-14T00:12:27;20.75;;;9.63;;
10705;SDS011;5404;42.656;23.336;2023-06-14T00:14:52;14.10;;;10.00;;
10705;SDS011;5404;42.656;23.336;2023-06-14T00:17:18;15.40;;;9.82;;
10705;SDS011;5404;42.656;23.336;2023-06-14T00:19:43;14.25;;;8.70;;
10705;SDS011;5404;42.656;23.336;2023-06-14T00:22:09;17.48;;;9.18;;
10705;SDS011;5404;42.656;23.336;2023-06-14T00:24:34;19.55;;;9.20;;
10705;SDS011;5404;42.656;23.336;2023-06-14T00:27:00;18.00;;;10.38;;
10705;SDS011;5404;42.656;23.336;2023-06-14T00:29:25;15.82;;;9.57;;
10705;SDS011;5404;42.656;23.336;2023-06-14T00:31:51;16.17;;;10.15;;
10705;SDS011;5404;42.656;23.336;2023-06-14T00:34:16;18.77;;;9.73;;
10705;SDS011;5404;42.656;23.336;2023-06-14T00:36:42;12.73;;;9.15;;
10705;SDS011;5404;42.656;23.336;2023-06-14T00:39:07;12.38;;;8.68;;
10705;SDS011;5404;42.656;23.336;2023-06-14T00:41:33;14.50;;;9.98;;
10705;SDS011;5404;42.656;23.336;2023-06-14T00:43:58;14.07;;;9.38;;
10705;SDS011;5404;42.656;23.336;2023-06-14T00:46:24;17.67;;;8.95;;
10705;SDS011;5404;42.656;23.336;2023-06-14T00:48:50;14.00;;;9.82;;
10705;SDS011;5404;42.656;23.336;2023-06-14T00:51:16;35.08;;;10.38;;
10705;SDS011;5404;42.656;23.336;2023-06-14T00:53:41;19.00;;;10.18;;
10705;SDS011;5404;42.656;23.336;2023-06-14T00:56:11;18.90;;;10.32;;
10705;SDS011;5404;42.656;23.336;2023-06-14T00:58:38;17.58;;;10.10;;
10705;SDS011;5404;42.656;23.336;2023-06-14T01:01:04;16.98;;;9.55;;
10705;SDS011;5404;42.656;23.336;2023-06-14T01:03:29;16.70;;;10.57;;
10705;SDS011;5404;42.656;23.336;2023-06-14T01:06:03;19.33;;;10.52;;
10705;SDS011;5404;42.656;23.336;2023-06-14T01:08:56;16.60;;;9.73;;
10705;SDS011;5404;42.656;23.336;2023-06-14T01:11:31;16.45;;;9.23;;
10705;SDS011;5404;42.656;23.336;2023-06-14T01:14:02;22.15;;;9.55;;
10705;SDS011;5404;42.656;23.336;2023-06-14T01:16:29;15.73;;;10.48;;
10705;SDS011;5404;42.656;23.336;2023-06-14T01:18:56;19.35;;;10.15;;
10705;SDS011;5404;42.656;23.336;2023-06-14T01:21:23;18.17;;;9.80;;
10705;SDS011;5404;42.656;23.336;2023-06-14T01:23:50;18.80;;;9.60;;
10705;SDS011;5404;42.656;23.336;2023-06-14T01:26:27;18.53;;;9.70;;
10705;SDS011;5404;42.656;23.336;2023-06-14T01:28:54;20.42;;;10.20;;
10705;SDS011;5404;42.656;23.336;2023-06-14T01:31:23;14.68;;;8.70;;
10705;SDS011;5404;42.656;23.336;2023-06-14T01:33:50;15.18;;;8.85;;
10705;SDS011;5404;42.656;23.336;2023-06-14T01:36:19;14.63;;;8.27;;
10705;SDS011;5404;42.656;23.336;2023-06-14T01:38:46;21.15;;;9.25;;
10705;SDS011;5404;42.656;23.336;2023-06-14T01:41:15;16.15;;;8.43;;
10705;SDS011;5404;42.656;23.336;2023-06-14T01:43:41;19.23;;;8.80;;
10705;SDS011;5404;42.656;23.336;2023-06-14T01:46:08;14.00;;;8.63;;
10705;SDS011;5404;42.656;23.336;2023-06-14T01:48:34;16.08;;;7.88;;
10705;SDS011;5404;42.656;23.336;2023-06-14T01:51:00;13.30;;;8.00;;
10705;SDS011;5404;42.656;23.336;2023-06-14T01:53:25;14.13;;;8.20;;
10705;SDS011;5404;42.656;23.336;2023-06-14T01:55:51;16.40;;;9.10;;
10705;SDS011;5404;42.656;23.336;2023-06-14T01:58:19;15.05;;;8.40;;
10705;SDS011;5404;42.656;23.336;2023-06-14T02:00:44;13.05;;;8.25;;
10705;SDS011;5404;42.656;23.336;2023-06-14T02:03:10;12.20;;;8.15;;
10705;SDS011;5404;42.656;23.336;2023-06-14T02:05:37;17.00;;;8.75;;
10705;SDS011;5404;42.656;23.336;2023-06-14T02:08:04;12.82;;;8.65;;
10705;SDS011;5404;42.656;23.336;2023-06-14T02:10:30;24.52;;;8.73;;
10705;SDS011;5404;42.656;23.336;2023-06-14T02:12:55;10.50;;;7.75;;
10705;SDS011;5404;42.656;23.336;2023-06-14T02:15:20;15.35;;;8.88;;
10705;SDS011;5404;42.656;23.336;2023-06-14T02:17:47;13.65;;;8.35;;
10705;SDS011;5404;42.656;23.336;2023-06-14T02:20:14;12.25;;;8.52;;
10705;SDS011;5404;42.656;23.336;2023-06-14T02:22:40;13.23;;;8.82;;
10705;SDS011;5404;42.656;23.336;2023-06-14T02:25:05;18.13;;;9.60;;
10705;SDS011;5404;42.656;23.336;2023-06-14T02:27:32;13.70;;;9.00;;
10705;SDS011;5404;42.656;23.336;2023-06-14T02:29:58;12.77;;;8.35;;
10705;SDS011;5404;42.656;23.336;2023-06-14T02:32:24;14.52;;;8.20;;
10705;SDS011;5404;42.656;23.336;2023-06-14T02:34:49;14.55;;;8.82;;
10705;SDS011;5404;42.656;23.336;2023-06-14T02:37:15;13.10;;;8.73;;
10705;SDS011;5404;42.656;23.336;2023-06-14T02:39:41;20.67;;;9.40;;
10705;SDS011;5404;42.656;23.336;2023-06-14T02:42:07;11.15;;;8.43;;
10705;SDS011;5404;42.656;23.336;2023-06-14T02:44:32;14.23;;;9.23;;
10705;SDS011;5404;42.656;23.336;2023-06-14T02:46:58;13.00;;;9.07;;
10705;SDS011;5404;42.656;23.336;2023-06-14T02:49:25;13.23;;;8.75;;
10705;SDS011;5404;42.656;23.336;2023-06-14T02:51:51;12.57;;;8.43;;
10705;SDS011;5404;42.656;23.336;2023-06-14T02:54:16;11.93;;;8.13;;
10705;SDS011;5404;42.656;23.336;2023-06-14T02:56:43;14.68;;;9.57;;
10705;SDS011;5404;42.656;23.336;2023-06-14T02:59:09;17.60;;;9.10;;
10705;SDS011;5404;42.656;23.336;2023-06-14T03:01:34;19.10;;;8.93;;
10705;SDS011;5404;42.656;23.336;2023-06-14T03:04:01;13.68;;;8.40;;
10705;SDS011;5404;42.656;23.336;2023-06-14T03:06:28;14.38;;;7.97;;
10705;SDS011;5404;42.656;23.336;2023-06-14T03:08:55;15.68;;;8.85;;
10705;SDS011;5404;42.656;23.336;2023-06-14T03:11:25;14.07;;;8.52;;
10705;SDS011;5404;42.656;23.336;2023-06-14T03:13:51;17.15;;;8.52;;
10705;SDS011;5404;42.656;23.336;2023-06-14T03:16:17;14.48;;;9.52;;
10705;SDS011;5404;42.656;23.336;2023-06-14T03:18:45;17.98;;;9.00;;
10705;SDS011;5404;42.656;23.336;2023-06-14T03:21:11;12.68;;;9.70;;
10705;SDS011;5404;42.656;23.336;2023-06-14T03:23:36;13.77;;;8.70;;
10705;SDS011;5404;42.656;23.336;2023-06-14T03:26:02;18.60;;;9.05;;
10705;SDS011;5404;42.656;23.336;2023-06-14T03:28:27;13.32;;;8.15;;
10705;SDS011;5404;42.656;23.336;2023-06-14T03:30:53;16.73;;;9.30;;
10705;SDS011;5404;42.656;23.336;2023-06-14T03:33:19;11.73;;;9.48;;
10705;SDS011;5404;42.656;23.336;2023-06-14T03:35:46;12.23;;;8.95;;
10705;SDS011;5404;42.656;23.336;2023-06-14T03:38:11;23.75;;;9.75;;
10705;SDS011;5404;42.656;23.336;2023-06-14T03:40:37;11.68;;;8.75;;
10705;SDS011;5404;42.656;23.336;2023-06-14T03:43:03;11.88;;;8.40;;
10705;SDS011;5404;42.656;23.336;2023-06-14T03:45:28;13.68;;;9.80;;
10705;SDS011;5404;42.656;23.336;2023-06-14T03:47:53;15.82;;;10.65;;
10705;SDS011;5404;42.656;23.336;2023-06-14T03:50:19;17.25;;;9.32;;
10705;SDS011;5404;42.656;23.336;2023-06-14T03:52:45;16.08;;;10.35;;
10705;SDS011;5404;42.656;23.336;2023-06-14T03:55:13;13.23;;;9.57;;
10705;SDS011;5404;42.656;23.336;2023-06-14T03:57:41;15.88;;;9.43;;
10705;SDS011;5404;42.656;23.336;2023-06-14T04:00:07;23.92;;;10.25;;
10705;SDS011;5404;42.656;23.336;2023-06-14T04:02:34;15.43;;;9.95;;
10705;SDS011;5404;42.656;23.336;2023-06-14T04:05:01;18.15;;;9.68;;
10705;SDS011;5404;42.656;23.336;2023-06-14T04:07:28;22.70;;;10.45;;
10705;SDS011;5404;42.656;23.336;2023-06-14T04:09:53;19.27;;;9.77;;
10705;SDS011;5404;42.656;23.336;2023-06-14T04:12:19;18.88;;;10.10;;
10705;SDS011;5404;42.656;23.336;2023-06-14T04:14:45;18.75;;;10.00;;
10705;SDS011;5404;42.656;23.336;2023-06-14T04:17:11;21.77;;;10.13;;
10705;SDS011;5404;42.656;23.336;2023-06-14T04:19:37;18.45;;;10.27;;
10705;SDS011;5404;42.656;23.336;2023-06-14T04:22:02;14.20;;;9.10;;
10705;SDS011;5404;42.656;23.336;2023-06-14T04:24:28;18.88;;;9.68;;
10705;SDS011;5404;42.656;23.336;2023-06-14T04:26:59;14.32;;;8.80;;
10705;SDS011;5404;42.656;23.336;2023-06-14T04:29:26;16.20;;;9.70;;
10705;SDS011;5404;42.656;23.336;2023-06-14T04:31:53;12.45;;;9.27;;
10705;SDS011;5404;42.656;23.336;2023-06-14T04:34:19;16.77;;;9.93;;
10705;SDS011;5404;42.656;23.336;2023-06-14T04:36:46;17.92;;;10.50;;
10705;SDS011;5404;42.656;23.336;2023-06-14T04:39:18;14.93;;;9.75;;
10705;SDS011;5404;42.656;23.336;2023-06-14T04:41:48;14.88;;;10.27;;
10705;SDS011;5404;42.656;23.336;2023-06-14T04:44:18;21.85;;;10.63;;
10705;SDS011;5404;42.656;23.336;2023-06-14T04:46:44;14.23;;;8.77;;
10705;SDS011;5404;42.656;23.336;2023-06-14T04:49:13;14.55;;;9.32;;
10705;SDS011;5404;42.656;23.336;2023-06-14T04:51:42;20.42;;;10.20;;
10705;SDS011;5404;42.656;23.336;2023-06-14T04:54:09;14.93;;;9.55;;
10705;SDS011;5404;42.656;23.336;2023-06-14T04:56:39;17.58;;;9.90;;
10705;SDS011;5404;42.656;23.336;2023-06-14T04:59:05;17.45;;;11.43;;
10705;SDS011;5404;42.656;23.336;2023-06-14T05:01:31;15.68;;;10.80;;
10705;SDS011;5404;42.656;23.336;2023-06-14T05:03:57;19.75;;;11.48;;
10705;SDS011;5404;42.656;23.336;2023-06-14T05:06:23;19.95;;;11.43;;
10705;SDS011;5404;42.656;23.336;2023-06-14T05:08:48;14.45;;;10.88;;
10705;SDS011;5404;42.656;23.336;2023-06-14T05:11:14;19.55;;;11.77;;
10705;SDS011;5404;42.656;23.336;2023-06-14T05:13:39;20.92;;;11.85;;
10705;SDS011;5404;42.656;23.336;2023-06-14T05:16:06;24.23;;;13.57;;
10705;SDS011;5404;42.656;23.336;2023-06-14T05:18:32;26.63;;;13.25;;
10705;SDS011;5404;42.656;23.336;2023-06-14T05:20:59;18.55;;;12.85;;
10705;SDS011;5404;42.656;23.336;2023-06-14T05:23:25;17.48;;;11.55;;
10705;SDS011;5404;42.656;23.336;2023-06-14T05:25:50;16.33;;;12.20;;
10705;SDS011;5404;42.656;23.336;2023-06-14T05:28:16;29.40;;;12.77;;
10705;SDS011;5404;42.656;23.336;2023-06-14T05:30:41;25.60;;;12.77;;
10705;SDS011;5404;42.656;23.336;2023-06-14T05:33:07;19.70;;;12.90;;
10705;SDS011;5404;42.656;23.336;2023-06-14T05:35:33;19.42;;;13.02;;
10705;SDS011;5404;42.656;23.336;2023-06-14T05:37:58;20.98;;;12.80;;
10705;SDS011;5404;42.656;23.336;2023-06-14T05:40:24;37.13;;;15.07;;
10705;SDS011;5404;42.656;23.336;2023-06-14T05:42:49;28.80;;;14.82;;
10705;SDS011;5404;42.656;23.336;2023-06-14T05:45:15;20.90;;;14.50;;
10705;SDS011;5404;42.656;23.336;2023-06-14T05:47:41;23.92;;;14.35;;
10705;SDS011;5404;42.656;23.336;2023-06-14T05:50:07;22.10;;;14.88;;
10705;SDS011;5404;42.656;23.336;2023-06-14T05:52:33;35.13;;;15.02;;
10705;SDS011;5404;42.656;23.336;2023-06-14T05:55:00;23.95;;;14.30;;
10705;SDS011;5404;42.656;23.336;2023-06-14T05:57:25;27.13;;;15.30;;
10705;SDS011;5404;42.656;23.336;2023-06-14T05:59:51;21.67;;;14.38;;
10705;SDS011;5404;42.656;23.336;2023-06-14T06:02:16;21.27;;;14.35;;
10705;SDS011;5404;42.656;23.336;2023-06-14T06:04:42;24.27;;;14.20;;
10705;SDS011;5404;42.656;23.336;2023-06-14T06:07:07;26.38;;;14.85;;
10705;SDS011;5404;42.656;23.336;2023-06-14T06:09:33;26.40;;;14.68;;
10705;SDS011;5404;42.656;23.336;2023-06-14T06:11:58;24.25;;;14.25;;
10705;SDS011;5404;42.656;23.336;2023-06-14T06:14:24;24.77;;;13.40;;
10705;SDS011;5404;42.656;23.336;2023-06-14T06:16:50;25.40;;;15.15;;
10705;SDS011;5404;42.656;23.336;2023-06-14T06:19:17;26.27;;;15.68;;
10705;SDS011;5404;42.656;23.336;2023-06-14T06:21:43;24.33;;;15.63;;
10705;SDS011;5404;42.656;23.336;2023-06-14T06:24:08;24.80;;;16.15;;
10705;SDS011;5404;42.656;23.336;2023-06-14T06:26:35;30.15;;;16.40;;
10705;SDS011;5404;42.656;23.336;2023-06-14T06:29:01;24.90;;;15.75;;
10705;SDS011;5404;42.656;23.336;2023-06-14T06:31:26;25.58;;;15.70;;
10705;SDS011;5404;42.656;23.336;2023-06-14T06:33:52;35.70;;;18.27;;
10705;SDS011;5404;42.656;23.336;2023-06-14T06:36:19;29.70;;;16.52;;
10705;SDS011;5404;42.656;23.336;2023-06-14T06:38:46;32.30;;;16.23;;
10705;SDS011;5404;42.656;23.336;2023-06-14T06:41:12;27.77;;;16.70;;
10705;SDS011;5404;42.656;23.336;2023-06-14T06:43:37;28.50;;;17.50;;
10705;SDS011;5404;42.656;23.336;2023-06-14T06:46:03;35.97;;;17.70;;
10705;SDS011;5404;42.656;23.336;2023-06-14T06:48:28;34.58;;;16.65;;
10705;SDS011;5404;42.656;23.336;2023-06-14T06:50:54;29.63;;;16.80;;
10705;SDS011;5404;42.656;23.336;2023-06-14T06:53:20;26.40;;;16.90;;
10705;SDS011;5404;42.656;23.336;2023-06-14T06:55:46;23.05;;;15.73;;
10705;SDS011;5404;42.656;23.336;2023-06-14T06:58:12;30.83;;;17.33;;
10705;SDS011;5404;42.656;23.336;2023-06-14T07:00:39;29.33;;;17.40;;
10705;SDS011;5404;42.656;23.336;2023-06-14T07:03:05;30.10;;;16.67;;
10705;SDS011;5404;42.656;23.336;2023-06-14T07:05:30;32.47;;;18.17;;
10705;SDS011;5404;42.656;23.336;2023-06-14T07:07:57;34.58;;;16.73;;
10705;SDS011;5404;42.656;23.336;2023-06-14T07:10:23;33.58;;;18.10;;
10705;SDS011;5404;42.656;23.336;2023-06-14T07:12:52;29.65;;;16.27;;
10705;SDS011;5404;42.656;23.336;2023-06-14T07:15:17;26.58;;;16.23;;
10705;SDS011;5404;42.656;23.336;2023-06-14T07:17:42;30.38;;;15.95;;
10705;SDS011;5404;42.656;23.336;2023-06-14T07:20:08;30.08;;;16.70;;
10705;SDS011;5404;42.656;23.336;2023-06-14T07:22:42;28.42;;;16.55;;
10705;SDS011;5404;42.656;23.336;2023-06-14T07:25:11;26.10;;;17.65;;
10705;SDS011;5404;42.656;23.336;2023-06-14T07:27:40;34.85;;;17.83;;
10705;SDS011;5404;42.656;23.336;2023-06-14T07:30:07;31.20;;;16.92;;
10705;SDS011;5404;42.656;23.336;2023-06-14T07:32:33;24.33;;;17.00;;
10705;SDS011;5404;42.656;23.336;2023-06-14T07:34:58;29.27;;;16.67;;
10705;SDS011;5404;42.656;23.336;2023-06-14T07:37:24;28.92;;;16.58;;
10705;SDS011;5404;42.656;23.336;2023-06-14T07:39:49;30.40;;;17.45;;
10705;SDS011;5404;42.656;23.336;2023-06-14T07:42:15;28.80;;;15.80;;
10705;SDS011;5404;42.656;23.336;2023-06-14T07:44:40;28.58;;;16.25;;
10705;SDS011;5404;42.656;23.336;2023-06-14T07:47:06;26.10;;;15.93;;
10705;SDS011;5404;42.656;23.336;2023-06-14T07:49:31;26.70;;;16.48;;
10705;SDS011;5404;42.656;23.336;2023-06-14T07:51:57;36.30;;;16.15;;
10705;SDS011;5404;42.656;23.336;2023-06-14T07:54:23;28.08;;;16.35;;
10705;SDS011;5404;42.656;23.336;2023-06-14T07:56:51;29.58;;;16.95;;
10705;SDS011;5404;42.656;23.336;2023-06-14T07:59:17;24.88;;;13.48;;
10705;SDS011;5404;42.656;23.336;2023-06-14T08:01:42;23.65;;;15.23;;
10705;SDS011;5404;42.656;23.336;2023-06-14T08:04:12;32.45;;;15.52;;
10705;SDS011;5404;42.656;23.336;2023-06-14T08:06:38;22.70;;;14.65;;
10705;SDS011;5404;42.656;23.336;2023-06-14T08:09:04;36.67;;;15.30;;
10705;SDS011;5404;42.656;23.336;2023-06-14T08:11:30;20.95;;;15.05;;
10705;SDS011;5404;42.656;23.336;2023-06-14T08:13:56;32.47;;;15.45;;
10705;SDS011;5404;42.656;23.336;2023-06-14T08:16:21;26.50;;;14.82;;
10705;SDS011;5404;42.656;23.336;2023-06-14T08:18:47;23.52;;;14.65;;
10705;SDS011;5404;42.656;23.336;2023-06-14T08:21:13;25.77;;;14.70;;
10705;SDS011;5404;42.656;23.336;2023-06-14T08:23:40;19.15;;;14.73;;
10705;SDS011;5404;42.656;23.336;2023-06-14T08:26:06;28.88;;;14.02;;
10705;SDS011;5404;42.656;23.336;2023-06-14T08:28:32;24.33;;;14.52;;
10705;SDS011;5404;42.656;23.336;2023-06-14T08:30:57;26.48;;;14.57;;
10705;SDS011;5404;42.656;23.336;2023-06-14T08:33:23;27.02;;;14.98;;
10705;SDS011;5404;42.656;23.336;2023-06-14T08:35:48;23.52;;;14.10;;
10705;SDS011;5404;42.656;23.336;2023-06-14T08:38:14;22.27;;;14.57;;
10705;SDS011;5404;42.656;23.336;2023-06-14T08:40:39;23.60;;;16.02;;
10705;SDS011;5404;42.656;23.336;2023-06-14T08:43:06;26.17;;;15.30;;
10705;SDS011;5404;42.656;23.336;2023-06-14T08:45:32;27.50;;;14.98;;
10705;SDS011;5404;42.656;23.336;2023-06-14T08:47:58;27.70;;;16.10;;
10705;SDS011;5404;42.656;23.336;2023-06-14T08:50:25;29.98;;;15.10;;
10705;SDS011;5404;42.656;23.336;2023-06-14T08:52:53;20.90;;;13.10;;
10705;SDS011;5404;42.656;23.336;2023-06-14T08:55:22;25.02;;;13.77;;
10705;SDS011;5404;42.656;23.336;2023-06-14T08:57:53;18.15;;;13.32;;
10705;SDS011;5404;42.656;23.336;2023-06-14T09:00:19;19.85;;;13.30;;
10705;SDS011;5404;42.656;23.336;2023-06-14T09:02:46;18.83;;;11.25;;
10705;SDS011;5404;42.656;23.336;2023-06-14T09:05:14;20.02;;;13.80;;
10705;SDS011;5404;42.656;23.336;2023-06-14T09:07:43;24.55;;;13.45;;
10705;SDS011;5404;42.656;23.336;2023-06-14T09:10:13;24.33;;;13.68;;
10705;SDS011;5404;42.656;23.336;2023-06-14T09:12:40;20.65;;;13.13;;
10705;SDS011;5404;42.656;23.336;2023-06-14T09:15:05;17.77;;;13.05;;
10705;SDS011;5404;42.656;23.336;2023-06-14T09:17:34;20.65;;;13.02;;
10705;SDS011;5404;42.656;23.336;2023-06-14T09:20:01;21.63;;;12.90;;
10705;SDS011;5404;42.656;23.336;2023-06-14T09:22:30;20.65;;;12.82;;
10705;SDS011;5404;42.656;23.336;2023-06-14T09:24:55;16.65;;;12.70;;
10705;SDS011;5404;42.656;23.336;2023-06-14T09:27:21;19.45;;;12.38;;
10705;SDS011;5404;42.656;23.336;2023-06-14T09:29:46;23.77;;;12.93;;
10705;SDS011;5404;42.656;23.336;2023-06-14T09:32:12;17.90;;;12.82;;
10705;SDS011;5404;42.656;23.336;2023-06-14T09:34:37;23.08;;;13.65;;
10705;SDS011;5404;42.656;23.336;2023-06-14T09:37:03;22.50;;;13.35;;
10705;SDS011;5404;42.656;23.336;2023-06-14T09:39:29;16.55;;;12.45;;
10705;SDS011;5404;42.656;23.336;2023-06-14T09:41:55;18.98;;;11.75;;
10705;SDS011;5404;42.656;23.336;2023-06-14T09:44:20;17.73;;;11.98;;
10705;SDS011;5404;42.656;23.336;2023-06-14T09:46:50;19.08;;;12.20;;
10705;SDS011;5404;42.656;23.336;2023-06-14T09:49:16;30.08;;;12.77;;
10705;SDS011;5404;42.656;23.336;2023-06-14T09:51:43;18.38;;;12.30;;
10705;SDS011;5404;42.656;23.336;2023-06-14T09:56:44;21.52;;;13.18;;
10705;SDS011;5404;42.656;23.336;2023-06-14T09:59:12;32.30;;;14.45;;
10705;SDS011;5404;42.656;23.336;2023-06-14T10:01:42;19.15;;;13.15;;
10705;SDS011;5404;42.656;23.336;2023-06-14T10:04:09;19.05;;;13.40;;
10705;SDS011;5404;42.656;23.336;2023-06-14T10:06:43;21.70;;;13.20;;
10705;SDS011;5404;42.656;23.336;2023-06-14T10:09:10;24.05;;;13.45;;
10705;SDS011;5404;42.656;23.336;2023-06-14T10:11:36;22.75;;;13.00;;
10705;SDS011;5404;42.656;23.336;2023-06-14T10:14:08;14.27;;;11.85;;
10705;SDS011;5404;42.656;23.336;2023-06-14T10:24:35;23.75;;;13.45;;
10705;SDS011;5404;42.656;23.336;2023-06-14T10:27:07;26.02;;;14.50;;
10705;SDS011;5404;42.656;23.336;2023-06-14T10:32:23;21.35;;;12.63;;
10705;SDS011;5404;42.656;23.336;2023-06-14T10:37:21;17.73;;;13.25;;
10705;SDS011;5404;42.656;23.336;2023-06-14T10:39:47;22.65;;;11.68;;
10705;SDS011;5404;42.656;23.336;2023-06-14T10:42:13;18.15;;;11.60;;
10705;SDS011;5404;42.656;23.336;2023-06-14T10:47:24;18.13;;;12.65;;
10705;SDS011;5404;42.656;23.336;2023-06-14T10:49:52;19.05;;;11.77;;
10705;SDS011;5404;42.656;23.336;2023-06-14T10:52:23;21.08;;;12.50;;
10705;SDS011;5404;42.656;23.336;2023-06-14T10:54:59;22.50;;;12.20;;
10705;SDS011;5404;42.656;23.336;2023-06-14T10:57:25;20.25;;;12.07;;
10705;SDS011;5404;42.656;23.336;2023-06-14T10:59:51;22.45;;;11.93;;
10705;SDS011;5404;42.656;23.336;2023-06-14T11:04:48;15.20;;;10.90;;
10705;SDS011;5404;42.656;23.336;2023-06-14T11:10:25;20.75;;;11.60;;
10705;SDS011;5404;42.656;23.336;2023-06-14T11:13:01;15.95;;;11.50;;
10705;SDS011;5404;42.656;23.336;2023-06-14T11:15:31;13.15;;;10.10;;
10705;SDS011;5404;42.656;23.336;2023-06-14T11:18:02;18.27;;;11.82;;
10705;SDS011;5404;42.656;23.336;2023-06-14T11:20:32;16.65;;;11.23;;
10705;SDS011;5404;42.656;23.336;2023-06-14T11:22:59;16.77;;;9.90;;
10705;SDS011;5404;42.656;23.336;2023-06-14T11:25:25;14.00;;;10.10;;
10705;SDS011;5404;42.656;23.336;2023-06-14T11:27:53;16.73;;;10.57;;
10705;SDS011;5404;42.656;23.336;2023-06-14T11:30:18;18.63;;;12.05;;
10705;SDS011;5404;42.656;23.336;2023-06-14T11:32:48;16.40;;;11.05;;
10705;SDS011;5404;42.656;23.336;2023-06-14T11:35:15;17.35;;;10.70;;
10705;SDS011;5404;42.656;23.336;2023-06-14T11:37:41;10.60;;;8.55;;
10705;SDS011;5404;42.656;23.336;2023-06-14T11:40:07;13.85;;;8.45;;
10705;SDS011;5404;42.656;23.336;2023-06-14T11:42:38;17.47;;;8.23;;
10705;SDS011;5404;42.656;23.336;2023-06-14T11:45:11;10.55;;;8.45;;
10705;SDS011;5404;42.656;23.336;2023-06-14T11:47:38;12.20;;;8.73;;
10705;SDS011;5404;42.656;23.336;2023-06-14T11:50:05;13.77;;;8.85;;
10705;SDS011;5404;42.656;23.336;2023-06-14T11:52:32;12.07;;;7.82;;
10705;SDS011;5404;42.656;23.336;2023-06-14T11:54:58;13.27;;;8.40;;
10705;SDS011;5404;42.656;23.336;2023-06-14T11:57:24;36.30;;;8.90;;
10705;SDS011;5404;42.656;23.336;2023-06-14T11:59:50;18.08;;;8.68;;
10705;SDS011;5404;42.656;23.336;2023-06-14T12:02:17;16.20;;;8.07;;
10705;SDS011;5404;42.656;23.336;2023-06-14T12:04:43;15.35;;;7.63;;
10705;SDS011;5404;42.656;23.336;2023-06-14T12:07:12;8.13;;;7.15;;
10705;SDS011;5404;42.656;23.336;2023-06-14T12:12:17;9.70;;;7.78;;
10705;SDS011;5404;42.656;23.336;2023-06-14T12:14:42;18.23;;;8.40;;
10705;SDS011;5404;42.656;23.336;2023-06-14T12:17:08;15.63;;;8.52;;
10705;SDS011;5404;42.656;23.336;2023-06-14T12:19:40;10.68;;;7.05;;
10705;SDS011;5404;42.656;23.336;2023-06-14T12:22:13;9.25;;;6.90;;
10705;SDS011;5404;42.656;23.336;2023-06-14T12:24:39;11.65;;;6.70;;
10705;SDS011;5404;42.656;23.336;2023-06-14T12:29:33;14.10;;;8.55;;
10705;SDS011;5404;42.656;23.336;2023-06-14T12:32:00;9.85;;;6.90;;
10705;SDS011;5404;42.656;23.336;2023-06-14T12:34:26;14.48;;;7.45;;
10705;SDS011;5404;42.656;23.336;2023-06-14T12:36:55;10.40;;;6.93;;
10705;SDS011;5404;42.656;23.336;2023-06-14T12:39:21;8.98;;;6.88;;
10705;SDS011;5404;42.656;23.336;2023-06-14T12:41:47;16.42;;;7.20;;
10705;SDS011;5404;42.656;23.336;2023-06-14T12:44:13;10.40;;;7.70;;
10705;SDS011;5404;42.656;23.336;2023-06-14T12:46:40;12.88;;;7.75;;
10705;SDS011;5404;42.656;23.336;2023-06-14T12:49:09;11.65;;;7.18;;
10705;SDS011;5404;42.656;23.336;2023-06-14T12:51:36;14.27;;;7.90;;
10705;SDS011;5404;42.656;23.336;2023-06-14T12:54:02;12.50;;;7.47;;
10705;SDS011;5404;42.656;23.336;2023-06-14T12:56:28;9.50;;;7.65;;
10705;SDS011;5404;42.656;23.336;2023-06-14T12:58:53;17.33;;;7.32;;
10705;SDS011;5404;42.656;23.336;2023-06-14T13:01:19;15.77;;;7.82;;
10705;SDS011;5404;42.656;23.336;2023-06-14T13:03:48;14.48;;;8.23;;
10705;SDS011;5404;42.656;23.336;2023-06-14T13:06:15;19.00;;;7.60;;
10705;SDS011;5404;42.656;23.336;2023-06-14T13:08:42;14.45;;;8.35;;
10705;SDS011;5404;42.656;23.336;2023-06-14T13:11:08;14.07;;;7.20;;
10705;SDS011;5404;42.656;23.336;2023-06-14T13:13:33;15.38;;;7.32;;
10705;SDS011;5404;42.656;23.336;2023-06-14T13:15:59;11.52;;;7.10;;
10705;SDS011;5404;42.656;23.336;2023-06-14T13:18:25;17.40;;;8.15;;
10705;SDS011;5404;42.656;23.336;2023-06-14T13:20:51;13.65;;;8.32;;
10705;SDS011;5404;42.656;23.336;2023-06-14T13:23:16;8.50;;;5.30;;
10705;SDS011;5404;42.656;23.336;2023-06-14T13:25:43;10.25;;;6.20;;
10705;SDS011;5404;42.656;23.336;2023-06-14T13:28:09;12.38;;;5.85;;
10705;SDS011;5404;42.656;23.336;2023-06-14T13:30:35;16.90;;;6.93;;
10705;SDS011;5404;42.656;23.336;2023-06-14T13:33:00;10.40;;;7.65;;
10705;SDS011;5404;42.656;23.336;2023-06-14T13:35:26;19.00;;;7.20;;
10705;SDS011;5404;42.656;23.336;2023-06-14T13:37:52;19.33;;;8.98;;
10705;SDS011;5404;42.656;23.336;2023-06-14T13:40:18;17.30;;;9.88;;
10705;SDS011;5404;42.656;23.336;2023-06-14T13:42:43;15.57;;;9.40;;
10705;SDS011;5404;42.656;23.336;2023-06-14T13:45:10;20.63;;;11.15;;
10705;SDS011;5404;42.656;23.336;2023-06-14T13:47:36;24.42;;;11.00;;
10705;SDS011;5404;42.656;23.336;2023-06-14T13:50:02;15.55;;;10.25;;
10705;SDS011;5404;42.656;23.336;2023-06-14T13:52:29;16.17;;;10.15;;
10705;SDS011;5404;42.656;23.336;2023-06-14T13:54:54;15.77;;;10.73;;
10705;SDS011;5404;42.656;23.336;2023-06-14T13:57:20;15.00;;;9.60;;
10705;SDS011;5404;42.656;23.336;2023-06-14T13:59:46;21.30;;;10.52;;
10705;SDS011;5404;42.656;23.336;2023-06-14T14:02:12;11.95;;;7.78;;
10705;SDS011;5404;42.656;23.336;2023-06-14T14:04:38;14.00;;;9.43;;
10705;SDS011;5404;42.656;23.336;2023-06-14T14:07:04;16.77;;;11.05;;
10705;SDS011;5404;42.656;23.336;2023-06-14T14:09:31;13.93;;;9.88;;
10705;SDS011;5404;42.656;23.336;2023-06-14T14:12:00;14.90;;;9.20;;
10705;SDS011;5404;42.656;23.336;2023-06-14T14:14:31;10.32;;;7.38;;
10705;SDS011;5404;42.656;23.336;2023-06-14T14:16:57;13.60;;;8.88;;
10705;SDS011;5404;42.656;23.336;2023-06-14T14:19:22;13.23;;;9.38;;
10705;SDS011;5404;42.656;23.336;2023-06-14T14:21:48;11.00;;;7.60;;
10705;SDS011;5404;42.656;23.336;2023-06-14T14:24:14;11.68;;;7.60;;
10705;SDS011;5404;42.656;23.336;2023-06-14T14:26:40;9.93;;;7.22;;
10705;SDS011;5404;42.656;23.336;2023-06-14T14:29:06;9.63;;;6.82;;
10705;SDS011;5404;42.656;23.336;2023-06-14T14:31:31;10.43;;;6.97;;
10705;SDS011;5404;42.656;23.336;2023-06-14T14:33:57;10.77;;;7.88;;
10705;SDS011;5404;42.656;23.336;2023-06-14T14:36:22;14.75;;;7.82;;
10705;SDS011;5404;42.656;23.336;2023-06-14T14:38:48;17.90;;;8.60;;
10705;SDS011;5404;42.656;23.336;2023-06-14T14:41:13;19.15;;;9.65;;
10705;SDS011;5404;42.656;23.336;2023-06-14T14:43:39;15.43;;;8.82;;
10705;SDS011;5404;42.656;23.336;2023-06-14T14:46:04;15.15;;;9.98;;
10705;SDS011;5404;42.656;23.336;2023-06-14T14:48:30;16.40;;;9.88;;
10705;SDS011;5404;42.656;23.336;2023-06-14T14:50:56;14.70;;;9.77;;
10705;SDS011;5404;42.656;23.336;2023-06-14T14:53:21;26.55;;;12.40;;